Pea Ridge, Missouri
Current Conditions -  °F | °C
As of 11:35 PM on Monday 26 Jan 2015 (Local Time) from KFYG Reporting Station
Few Clouds Few Clouds  
Wind Chill: -1°   Ceiling: Unl
Heat Index:   Visibility: 10mi
Dew Point:   Wind: 5mph
Humidity: 93%   Direction: 340°NNW
Pressure: 29.92"   Gusts: NA
Location:  38.2643°N, 91.1348°W
Report Text: KFYG 270535Z AUTO 34004KT 10SM FEW048 01/00 A2992 RMK AO2
Loading
Personal Weather Stations






























Interactive Weather Map New forecast layout! Learn more

10-Day Weather Forecast

Advertisements
Track Severe Weather on mobile